createdAt,value
2023-12-02T00:02:15.674Z,18.08
2023-12-02T00:07:18.775Z,12.68
2023-12-02T00:12:20.622Z,17.65
2023-12-02T00:17:22.355Z,12.93
2023-12-02T00:22:25.362Z,16.65
2023-12-02T00:27:26.992Z,11.43
2023-12-02T00:32:29.909Z,11.85
2023-12-02T00:37:33.029Z,12.52
2023-12-02T00:42:35.343Z,11.50
2023-12-02T00:47:37.054Z,14.10
2023-12-02T00:52:40.023Z,15.48
2023-12-02T00:57:42.410Z,17.98
2023-12-02T01:02:44.020Z,18.20
2023-12-02T01:07:47.040Z,18.17
2023-12-02T01:12:48.611Z,15.35
2023-12-02T01:17:50.278Z,14.65
2023-12-02T01:22:53.260Z,14.80
2023-12-02T01:27:54.868Z,17.08
2023-12-02T01:32:56.581Z,14.57
2023-12-02T01:37:59.465Z,12.10
2023-12-02T01:43:02.847Z,14.23
2023-12-02T01:48:04.938Z,14.75
2023-12-02T01:53:07.998Z,13.38
2023-12-02T01:58:09.728Z,10.93
2023-12-02T02:03:11.441Z,12.60
2023-12-02T02:08:14.507Z,13.98
2023-12-02T02:13:16.229Z,16.95
2023-12-02T02:18:17.923Z,14.27
2023-12-02T02:23:22.162Z,12.05
2023-12-02T02:28:25.308Z,14.70
2023-12-02T02:33:26.956Z,12.48
2023-12-02T02:38:29.954Z,13.35
2023-12-02T02:43:31.477Z,11.43
2023-12-02T02:48:33.130Z,12.88
2023-12-02T02:53:36.076Z,12.00
2023-12-02T02:58:37.656Z,11.98
2023-12-02T03:03:39.207Z,14.35
2023-12-02T03:08:42.193Z,14.13
2023-12-02T03:13:43.868Z,14.05
2023-12-02T03:18:45.567Z,13.75
2023-12-02T03:23:50.666Z,11.75
2023-12-02T03:28:52.405Z,11.00
2023-12-02T03:33:53.990Z,9.38
2023-12-02T03:38:56.988Z,12.77
2023-12-02T03:43:59.367Z,12.60
2023-12-02T03:49:01.331Z,14.18
2023-12-02T03:54:04.247Z,13.63
2023-12-02T03:59:05.755Z,11.63
2023-12-02T04:04:07.306Z,13.50
2023-12-02T04:09:10.150Z,13.57
2023-12-02T04:14:11.757Z,12.32
2023-12-02T04:19:13.445Z,12.73
2023-12-02T04:24:16.375Z,15.88
2023-12-02T04:29:17.912Z,16.83
2023-12-02T04:34:19.577Z,16.50
2023-12-02T04:39:22.564Z,15.13
2023-12-02T04:44:24.510Z,12.82
2023-12-02T04:49:26.175Z,15.90
2023-12-02T04:54:29.198Z,12.25
2023-12-02T04:59:30.762Z,12.00
2023-12-02T05:04:32.476Z,12.98
2023-12-02T05:09:37.295Z,17.45
2023-12-02T05:14:39.160Z,15.35
2023-12-02T05:19:40.732Z,15.25
2023-12-02T05:24:43.709Z,17.45
2023-12-02T05:29:45.263Z,13.88
2023-12-02T05:34:46.896Z,22.42
2023-12-02T05:39:49.767Z,18.85
2023-12-02T05:44:51.306Z,15.25
2023-12-02T05:49:52.842Z,12.20
2023-12-02T05:54:56.132Z,15.02
2023-12-02T05:59:57.702Z,19.02
2023-12-02T06:04:59.343Z,16.60
2023-12-02T06:10:02.264Z,27.13
2023-12-02T06:15:04.887Z,19.70
2023-12-02T06:20:07.741Z,22.10
2023-12-02T06:25:10.755Z,17.35
2023-12-02T06:30:14.868Z,18.88
2023-12-02T06:35:16.555Z,23.50
2023-12-02T06:40:19.530Z,18.27
2023-12-02T06:45:21.118Z,14.50
2023-12-02T06:50:22.682Z,16.55
2023-12-02T07:00:30.081Z,17.35
2023-12-02T07:05:31.697Z,13.02
2023-12-02T07:10:35.655Z,15.32
2023-12-02T07:15:38.308Z,18.42
2023-12-02T07:20:41.490Z,13.73
2023-12-02T07:25:44.428Z,16.52
2023-12-02T07:30:46.021Z,16.33
2023-12-02T07:35:47.616Z,17.00
2023-12-02T07:40:50.564Z,18.13
2023-12-02T07:45:52.177Z,12.75
2023-12-02T07:50:53.737Z,14.73
2023-12-02T07:55:56.678Z,13.93
2023-12-02T08:00:58.200Z,14.27
2023-12-02T08:05:59.852Z,18.98
2023-12-02T08:11:02.796Z,13.93
2023-12-02T08:16:05.022Z,11.68
2023-12-02T08:21:07.579Z,10.98
2023-12-02T08:26:10.496Z,14.25
2023-12-02T08:31:12.120Z,14.70
2023-12-02T08:36:13.720Z,13.40
2023-12-02T08:41:16.650Z,17.50
2023-12-02T08:46:19.215Z,12.52
2023-12-02T08:51:20.826Z,14.90
2023-12-02T08:56:23.823Z,15.32
2023-12-02T09:01:25.547Z,8.38
2023-12-02T09:06:27.279Z,11.15
2023-12-02T09:11:30.778Z,12.43
2023-12-02T09:16:32.469Z,9.90
2023-12-02T09:21:51.740Z,7.50
2023-12-02T09:26:54.722Z,9.68
2023-12-02T09:31:56.634Z,7.95
2023-12-02T09:36:58.268Z,8.10
2023-12-02T09:42:04.935Z,8.88
2023-12-02T09:47:15.534Z,10.33
2023-12-02T09:52:28.948Z,17.30
2023-12-02T09:57:38.507Z,15.27
2023-12-02T10:03:10.175Z,20.05
2023-12-02T10:08:26.077Z,12.35
2023-12-02T10:13:43.129Z,11.00
2023-12-02T10:18:54.131Z,15.02
2023-12-02T10:23:58.196Z,18.77
2023-12-02T10:29:12.904Z,18.83
2023-12-02T10:34:22.459Z,13.23
2023-12-02T10:39:35.665Z,10.55
2023-12-02T10:44:40.819Z,10.85
2023-12-02T10:49:43.676Z,9.40
2023-12-02T10:54:52.636Z,9.27
2023-12-02T11:00:04.309Z,11.65
2023-12-02T11:05:19.720Z,10.27
2023-12-02T11:10:43.476Z,10.70
2023-12-02T11:16:14.178Z,9.57
2023-12-02T11:21:25.822Z,9.18
2023-12-02T11:26:33.534Z,8.73
2023-12-02T11:31:56.110Z,11.10
2023-12-02T11:37:08.720Z,8.93
2023-12-02T11:42:17.108Z,9.05
2023-12-02T11:47:33.036Z,9.25
2023-12-02T11:52:47.979Z,8.55
2023-12-02T11:57:59.714Z,10.20
2023-12-02T12:03:22.556Z,9.05
2023-12-02T12:08:34.392Z,8.18
2023-12-02T12:13:36.671Z,7.82
2023-12-02T12:18:39.637Z,11.23
2023-12-02T12:23:41.191Z,12.13
2023-12-02T12:28:42.744Z,12.23
2023-12-02T12:33:50.829Z,8.13
2023-12-02T12:38:54.744Z,10.75
2023-12-02T12:43:57.864Z,8.98
2023-12-02T12:49:04.713Z,7.18
2023-12-02T12:54:06.971Z,10.10
2023-12-02T12:59:10.214Z,8.25
2023-12-02T13:04:25.263Z,10.73
2023-12-02T13:09:31.480Z,10.93
2023-12-02T13:14:39.945Z,9.02
2023-12-02T13:19:45.295Z,9.20
2023-12-02T13:24:54.453Z,9.13
2023-12-02T13:30:01.066Z,11.52
2023-12-02T13:35:06.227Z,9.17
2023-12-02T13:40:11.261Z,11.10
2023-12-02T13:45:17.663Z,10.55
2023-12-02T13:50:26.686Z,8.53
2023-12-02T13:55:46.819Z,9.77
2023-12-02T14:00:59.099Z,8.57
2023-12-02T14:06:08.492Z,9.95
2023-12-02T14:11:14.984Z,9.52
2023-12-02T14:16:38.528Z,8.43
2023-12-02T14:21:58.458Z,8.07
2023-12-02T14:27:27.319Z,7.68
2023-12-02T14:32:43.055Z,7.93
2023-12-02T14:38:08.060Z,7.97
2023-12-02T14:43:27.818Z,8.52
2023-12-02T14:48:30.246Z,8.00
2023-12-02T14:53:36.909Z,8.35
2023-12-02T14:58:39.091Z,8.10
2023-12-02T15:03:43.284Z,8.73
2023-12-02T15:08:46.917Z,7.80
2023-12-02T15:13:49.697Z,7.25
2023-12-02T15:18:52.922Z,7.22
2023-12-02T15:23:55.931Z,7.70
2023-12-02T15:29:01.459Z,8.30
2023-12-02T15:34:03.304Z,7.55
2023-12-02T15:39:09.440Z,6.97
2023-12-02T15:44:11.089Z,7.55
2023-12-02T15:49:12.704Z,8.18
2023-12-02T15:54:16.010Z,7.50
2023-12-02T15:59:20.194Z,6.88
2023-12-02T16:04:22.128Z,7.45
2023-12-02T16:09:25.310Z,6.05
2023-12-02T16:14:27.574Z,6.68
2023-12-02T16:19:29.692Z,6.97
2023-12-02T16:24:32.965Z,6.30
2023-12-02T16:29:35.401Z,6.28
2023-12-02T16:34:37.196Z,6.20
2023-12-02T16:39:40.896Z,6.03
2023-12-02T16:44:43.026Z,6.55
2023-12-02T16:49:44.640Z,6.00
2023-12-02T16:54:47.620Z,6.80
2023-12-02T16:59:49.801Z,6.82
2023-12-02T17:04:51.564Z,8.57
2023-12-02T17:09:54.659Z,8.63
2023-12-02T17:15:05.656Z,9.82
2023-12-02T17:20:14.047Z,8.60
2023-12-02T17:25:45.974Z,9.40
2023-12-02T17:30:47.532Z,10.02
2023-12-02T17:35:49.117Z,9.75
2023-12-02T17:40:52.054Z,11.30
2023-12-02T17:45:53.698Z,11.48
2023-12-02T17:50:55.288Z,10.43
2023-12-02T17:55:58.225Z,10.82
2023-12-02T18:00:59.807Z,9.27
2023-12-02T18:06:01.584Z,7.97
2023-12-02T18:11:04.816Z,8.63
2023-12-02T18:16:07.213Z,8.43
2023-12-02T18:21:08.905Z,8.75
2023-12-02T18:26:11.973Z,7.30
2023-12-02T18:31:13.494Z,7.75
2023-12-02T18:36:15.114Z,10.15
2023-12-02T18:41:18.062Z,8.63
2023-12-02T18:46:19.613Z,11.02
2023-12-02T18:51:21.152Z,8.45
2023-12-02T18:56:24.029Z,8.05
2023-12-02T19:01:25.811Z,8.23
2023-12-02T19:06:27.642Z,8.40
2023-12-02T19:11:30.679Z,7.30
2023-12-02T19:16:32.322Z,8.40
2023-12-02T19:21:33.939Z,5.82
2023-12-02T19:26:36.839Z,6.03
2023-12-02T19:31:38.471Z,6.07
2023-12-02T19:36:40.166Z,4.68
2023-12-02T19:41:46.079Z,5.43
2023-12-02T19:46:48.444Z,5.18
2023-12-02T19:51:50.049Z,5.50
2023-12-02T19:56:53.130Z,5.68
2023-12-02T20:01:54.804Z,6.38
2023-12-02T20:06:56.364Z,6.57
2023-12-02T20:11:59.348Z,7.25
2023-12-02T20:17:00.972Z,8.93
2023-12-02T20:22:02.867Z,9.05
2023-12-02T20:27:05.965Z,9.45
2023-12-02T20:32:07.559Z,8.77
2023-12-02T20:37:09.273Z,7.32
2023-12-02T20:42:12.301Z,7.32
2023-12-02T20:47:13.936Z,6.47
2023-12-02T20:52:15.487Z,6.65
2023-12-02T20:57:18.439Z,5.80
2023-12-02T21:02:20.198Z,5.40
2023-12-02T21:07:21.833Z,6.43
2023-12-02T21:12:26.225Z,5.90
2023-12-02T21:17:28.989Z,4.93
2023-12-02T21:22:30.713Z,6.22
2023-12-02T21:27:33.838Z,7.03
2023-12-02T21:32:35.454Z,6.82
2023-12-02T21:37:37.081Z,5.40
2023-12-02T21:42:40.066Z,5.63
2023-12-02T21:47:41.695Z,7.25
2023-12-02T21:52:43.234Z,6.60
2023-12-02T21:57:47.429Z,6.97
2023-12-02T22:02:49.116Z,7.35
2023-12-02T22:07:50.827Z,8.13
2023-12-02T22:12:54.080Z,7.55
2023-12-02T22:17:56.059Z,8.57
2023-12-02T22:22:59.766Z,7.97
2023-12-02T22:28:04.840Z,7.82
2023-12-02T22:33:06.817Z,10.45
2023-12-02T22:38:17.285Z,10.52
2023-12-02T22:43:21.600Z,10.98
2023-12-02T22:48:36.160Z,10.88
2023-12-02T22:53:39.447Z,11.68
2023-12-02T22:58:44.493Z,10.00
2023-12-02T23:03:46.349Z,11.32
2023-12-02T23:08:48.099Z,11.10
2023-12-02T23:13:51.135Z,10.43
2023-12-02T23:18:52.759Z,11.82
2023-12-02T23:23:54.344Z,10.93
2023-12-02T23:28:57.500Z,12.65
2023-12-02T23:33:59.192Z,12.48
2023-12-02T23:39:01.325Z,12.10
2023-12-02T23:44:08.842Z,12.30
2023-12-02T23:49:10.464Z,13.23
2023-12-02T23:54:12.187Z,12.95
2023-12-02T23:59:15.358Z,13.05
